Latest Weather Observations for Aireys Inlet

IDV60801

Issued at 5:32 pm EST Friday 17 August 2018 (issued every 10 minutes, with the page automatically refreshed every 10 minutes)

About weather observations | Map of weather stations | Latest weather observations for VIC | Other Formats
Station Details ID: 090180 Name: AIREYS INLET Lat: -38.46 Lon: 144.09 Height: 105.0 m
Data from the previous 72 hours. | See also: Recent months at Aireys Inlet
Date/Time
EST
Temp
°C
App
Temp
°C
Dew
Point
°C
Rel
Hum
%
Delta-T
°C
Wind Press
QNH
hPa
Press
MSL
hPa
Rain since
9am
mm
Dir  Spd
km/h
Gust
km/h
Spd
kts
Gust
kts
17/05:30pm 12.7 8.0 5.1 60 3.5 N 19 39 10 21 - - 0.0
17/05:00pm 12.9 7.6 5.1 59 3.6 N 22 41 12 22 - - 0.0
17/04:30pm 13.1 7.0 5.0 58 3.8 NNW 26 46 14 25 - - 0.0
17/04:00pm 13.0 7.3 4.7 57 3.8 NNW 24 43 13 23 - - 0.0
17/03:30pm 13.3 7.3 5.2 58 3.8 NW 26 44 14 24 - - 0.0
17/03:00pm 14.3 7.2 5.4 55 4.2 NW 32 54 17 29 - - 0.0
17/02:30pm 13.8 5.6 4.9 55 4.2 NW 37 57 20 31 - - 0.0
17/02:00pm 14.7 6.3 5.5 54 4.4 NW 39 59 21 32 - - 0.0
17/01:30pm 13.6 4.7 5.0 56 4.0 NW 41 63 22 34 - - 0.0
17/01:08pm 14.1 7.7 5.2 55 4.2 NW 28 48 15 26 - - 0.0
17/01:00pm 14.1 9.3 4.9 54 4.3 NW 19 44 10 24 - - 0.0
17/12:30pm 13.4 6.2 5.1 57 3.9 NNW 32 56 17 30 - - 0.0
17/12:00pm 13.4 7.0 5.3 58 3.8 NNW 28 48 15 26 - - 0.0
17/11:46am 12.6 5.8 5.1 60 3.5 NW 30 50 16 27 - - 0.0
17/11:30am 12.2 6.1 4.7 60 3.4 NW 26 46 14 25 - - 0.0
17/11:00am 11.6 4.2 4.8 63 3.1 NW 33 54 18 29 - - 0.0
17/10:41am 11.6 4.8 5.0 64 3.0 NW 30 50 16 27 - - 0.0
17/10:30am 11.1 3.9 4.8 65 2.9 NNW 32 48 17 26 - - 0.0
17/10:00am 10.2 3.7 4.6 68 2.5 NNW 28 48 15 26 - - 0.0
17/09:30am 9.1 4.1 4.5 73 2.0 NNW 20 32 11 17 - - 0.0
17/09:00am 8.1 1.1 4.1 76 1.7 NW 30 43 16 23 - - 0.0
17/08:30am 7.5 1.2 3.9 78 1.6 NW 26 46 14 25 - - 0.0
17/08:00am 6.9 1.7 3.7 80 1.4 NW 20 33 11 18 - - 0.0
17/07:30am 6.5 0.6 3.8 83 1.2 NNW 24 35 13 19 - - 0.0
17/07:00am 6.1 1.2 3.9 86 0.9 NW 19 28 10 15 - - 0.0
17/06:30am 5.3 1.4 3.5 88 0.8 N 13 20 7 11 - - 0.0
17/06:00am 6.5 1.9 3.7 82 1.2 NNW 17 26 9 14 - - 0.0
17/05:30am 6.5 1.5 3.8 83 1.2 NW 19 24 10 13 - - 0.0
17/05:00am 5.8 2.3 3.6 86 0.9 NNW 11 15 6 8 - - 0.0
17/04:30am 6.4 3.3 3.7 83 1.1 NNW 9 19 5 10 - - 0.0
17/04:00am 6.7 3.6 3.7 81 1.3 N 9 17 5 9 - - 0.0
17/03:30am 7.2 2.2 3.8 79 1.5 NW 19 26 10 14 - - 0.0
17/03:00am 7.0 2.5 4.0 81 1.3 NW 17 28 9 15 - - 0.0
17/02:30am 6.8 2.6 3.9 82 1.2 NW 15 24 8 13 - - 0.0
17/02:00am 6.8 2.6 3.9 82 1.2 NNW 15 24 8 13 - - 0.0
17/01:30am 6.8 3.0 3.9 82 1.2 NW 13 20 7 11 - - 0.0
17/01:00am 7.1 2.5 3.9 80 1.4 NW 17 24 9 13 - - 0.0
17/12:30am 6.4 1.3 4.1 85 1.0 NW 20 26 11 14 - - 0.0
17/12:00am 6.3 1.4 4.0 85 1.0 NNW 19 26 10 14 - - 0.0
 
Date/Time
EST
Temp
°C
App
Temp
°C
Dew
Point
°C
Rel
Hum
%
Delta-T
°C
Wind Press
QNH
hPa
Press
MSL
hPa
Rain since
9am
mm
Dir  Spd
km/h
Gust
km/h
Spd
kts
Gust
kts
16/11:30pm 6.8 1.9 4.3 84 1.1 NW 19 22 10 12 - - 0.0
16/11:00pm 6.8 2.3 4.3 84 1.1 NW 17 20 9 11 - - 0.0
16/10:30pm 6.7 2.2 4.4 85 1.0 NW 17 20 9 11 - - 0.0
16/10:00pm 7.3 3.2 4.4 82 1.3 NW 15 19 8 10 - - 0.0
16/09:30pm 7.2 3.5 4.7 84 1.1 NW 13 17 7 9 - - 0.0
16/09:00pm 7.2 3.6 5.0 86 1.0 NW 13 19 7 10 - - 0.0
16/08:30pm 8.2 4.2 5.1 81 1.4 WNW 15 19 8 10 - - 0.0
16/08:00pm 7.8 3.9 5.3 84 1.1 NW 15 17 8 9 - - 0.0
16/07:30pm 8.6 4.2 5.0 78 1.6 NW 17 20 9 11 - - 0.0
16/07:00pm 8.8 4.9 5.2 78 1.6 NW 15 19 8 10 - - 0.0
16/06:30pm 9.1 5.1 4.9 75 1.9 WNW 15 19 8 10 - - 0.0
16/06:00pm 9.6 5.6 4.8 72 2.2 WNW 15 20 8 11 - - 0.0
16/05:30pm 10.1 6.9 5.3 72 2.2 W 11 19 6 10 - - 0.0
16/05:00pm 11.2 7.5 4.7 64 3.0 W 13 19 7 10 - - 0.0
16/04:30pm 11.3 7.8 5.6 68 2.6 WNW 13 20 7 11 - - 0.0
16/04:00pm 11.6 7.4 5.7 67 2.8 WNW 17 24 9 13 - - 0.0
16/03:30pm 11.5 7.1 4.9 64 3.0 W 17 28 9 15 - - 0.0
16/03:00pm 12.5 7.7 5.7 63 3.2 WNW 20 30 11 16 - - 0.0
16/02:30pm 10.4 4.6 4.5 67 2.7 W 24 37 13 20 - - 0.0
16/02:00pm 11.2 6.5 5.9 70 2.5 WSW 20 30 11 16 - - 0.0
16/01:30pm 12.6 7.3 6.9 68 2.8 W 24 39 13 21 - - 0.0
16/01:00pm 12.3 6.8 5.9 65 3.0 W 24 41 13 22 - - 0.0
16/12:30pm 10.8 5.7 6.0 72 2.2 W 22 37 12 20 - - 0.0
16/12:20pm 11.0 4.7 5.7 70 2.5 WSW 28 46 15 25 - - 0.0
16/12:00pm 10.9 5.4 6.1 72 2.2 WSW 24 37 13 20 - - 0.0
16/11:30am 11.0 6.2 5.5 69 2.5 W 20 35 11 19 - - 0.0
16/11:00am 10.7 6.7 6.5 75 2.0 W 17 28 9 15 - - 0.0
16/10:30am 9.6 4.0 5.6 76 1.8 WNW 24 44 13 24 - - 0.0
16/10:00am 8.8 4.1 5.2 78 1.6 WNW 19 33 10 18 - - 0.0
16/09:30am 8.4 4.2 5.5 82 1.3 WNW 17 26 9 14 - - 0.0
16/09:00am 8.0 3.7 5.1 82 1.3 WNW 17 30 9 16 - - 3.0
16/08:30am 7.6 3.7 5.2 85 1.1 WNW 15 28 8 15 - - 3.0
16/08:00am 7.5 2.6 5.1 85 1.1 NW 20 33 11 18 - - 3.0
16/07:30am 7.1 2.3 4.9 86 1.0 WNW 19 32 10 17 - - 3.0
16/07:00am 6.8 1.8 4.8 87 0.9 WNW 20 35 11 19 - - 3.0
16/06:30am 7.0 1.7 4.8 86 1.0 WNW 22 37 12 20 - - 3.0
16/06:00am 7.0 1.7 5.0 87 0.9 NW 22 35 12 19 - - 3.0
16/05:30am 7.1 1.4 5.1 87 0.9 WNW 24 41 13 22 - - 3.0
16/05:00am 7.0 0.9 4.8 86 1.0 NW 26 39 14 21 - - 3.0
16/04:30am 6.9 0.5 5.1 88 0.8 WNW 28 43 15 23 - - 3.0
16/04:00am 7.1 1.8 4.9 86 1.0 WNW 22 35 12 19 - - 3.0
16/03:30am 7.1 1.8 5.1 87 0.9 WNW 22 37 12 20 - - 3.0
16/03:00am 7.2 4.0 5.2 87 0.9 WNW 11 20 6 11 - - 3.0
16/02:30am 7.1 3.5 5.1 87 0.9 W 13 19 7 10 - - 3.0
16/02:00am 7.6 2.9 5.2 85 1.1 WNW 19 30 10 16 - - 3.0
16/01:30am 7.7 3.8 5.3 85 1.1 NW 15 22 8 12 - - 3.0
16/01:00am 7.8 3.9 5.3 84 1.1 W 15 28 8 15 - - 3.0
16/12:30am 8.0 4.5 5.3 83 1.2 WNW 13 26 7 14 - - 3.0
16/12:00am 7.8 3.5 5.3 84 1.1 WNW 17 28 9 15 - - 3.0
 
Date/Time
EST
Temp
°C
App
Temp
°C
Dew
Point
°C
Rel
Hum
%
Delta-T
°C
Wind Press
QNH
hPa
Press
MSL
hPa
Rain since
9am
mm
Dir  Spd
km/h
Gust
km/h
Spd
kts
Gust
kts
15/11:30pm 8.0 3.8 5.5 84 1.1 WNW 17 26 9 14 - - 3.0
15/11:00pm 8.1 3.5 5.6 84 1.1 W 19 35 10 19 - - 3.0
15/10:30pm 8.2 3.4 5.7 84 1.1 W 20 35 11 19 - - 3.0
15/10:00pm 8.5 4.6 5.4 81 1.4 WNW 15 26 8 14 - - 3.0
15/09:30pm 8.6 4.4 5.5 81 1.4 WNW 17 28 9 15 - - 3.0
15/09:00pm 8.7 4.5 5.8 82 1.3 WNW 17 32 9 17 - - 3.0
15/08:30pm 8.9 3.8 6.0 82 1.3 WNW 22 39 12 21 - - 3.0
15/08:00pm 9.1 3.6 6.0 81 1.4 NW 24 37 13 20 - - 3.0
15/07:30pm 9.0 3.1 5.9 81 1.4 WNW 26 43 14 23 - - 3.0
15/07:00pm 8.9 2.2 5.6 80 1.5 WNW 30 48 16 26 - - 3.0
15/06:32pm 9.1 2.1 6.0 81 1.4 WNW 32 76 17 41 - - 3.0
15/06:31pm 9.1 2.5 6.0 81 1.4 WNW 30 56 16 30 - - 3.0
15/06:30pm 9.1 2.4 5.8 80 1.5 WNW 30 46 16 25 - - 3.0
15/06:19pm 9.1 2.1 5.8 80 1.5 WNW 32 54 17 29 - - 3.0
15/06:00pm 8.9 2.2 5.8 81 1.4 WNW 30 44 16 24 - - 3.0
15/05:30pm 8.6 2.3 5.7 82 1.3 NW 28 41 15 22 - - 3.0
15/05:00pm 8.1 1.8 5.6 84 1.1 WNW 28 43 15 23 - - 3.0
15/04:34pm 8.3 1.5 5.1 80 1.4 WNW 30 50 16 27 - - 2.6
15/04:30pm 8.4 2.0 5.3 81 1.4 W 28 48 15 26 - - 2.4
15/04:18pm 9.2 3.1 6.8 85 1.1 W 28 48 15 26 - - 2.2
15/04:00pm 9.9 3.6 5.7 75 1.9 WNW 28 43 15 23 - - 1.2
15/03:30pm 9.6 4.1 6.0 78 1.7 NW 24 37 13 20 - - 1.2
15/03:00pm 12.1 4.8 5.3 63 3.2 WNW 33 59 18 32 - - 1.0
15/02:30pm 11.1 4.2 6.5 73 2.2 WNW 32 50 17 27 - - 1.0
15/02:10pm 9.1 0.3 5.5 78 1.6 WNW 41 80 22 43 - - 1.0
15/02:07pm 9.2 0.2 4.4 72 2.1 WNW 41 80 22 43 - - 0.8
15/02:04pm 12.2 4.3 4.4 59 3.6 WNW 35 80 19 43 - - 0.4
15/02:00pm 13.4 5.5 4.6 55 4.1 WNW 35 57 19 31 - - 0.4
15/01:34pm 14.1 6.9 5.2 55 4.2 WNW 32 52 17 28 - - 0.4
15/01:30pm 13.7 6.6 5.3 57 4.0 WNW 32 48 17 26 - - 0.4
15/01:00pm 12.2 4.5 6.9 70 2.6 WNW 37 56 20 30 - - 0.4
15/12:30pm 11.9 5.5 7.0 72 2.4 W 30 52 16 28 - - 0.2
15/12:24pm 11.7 4.4 7.4 75 2.1 W 35 61 19 33 - - 0.2
15/12:00pm 12.4 3.7 5.8 64 3.1 WNW 41 63 22 34 - - 0.2
15/11:30am 11.2 4.2 6.9 75 2.1 WNW 33 56 18 30 - - 0.2
15/11:18am 10.2 2.1 6.9 80 1.6 W 39 67 21 36 - - 0.2
15/11:10am 11.9 4.0 6.2 68 2.7 WNW 37 57 20 31 - - 0.0
15/11:00am 13.2 4.6 4.6 56 4.0 WNW 39 74 21 40 - - 0.0
15/10:30am 12.8 4.3 5.2 60 3.5 WNW 39 61 21 33 - - 0.0
15/10:00am 11.8 2.5 5.2 64 3.1 WNW 43 69 23 37 - - 0.0
15/09:30am 12.3 3.3 4.5 59 3.6 WNW 41 72 22 39 - - 0.0
15/09:00am 11.9 2.6 5.8 66 2.9 NW 44 65 24 35 - - 0.2
15/08:30am 12.0 2.8 5.6 65 3.0 WNW 43 69 23 37 - - 0.2
15/08:00am 12.0 2.7 5.9 66 2.9 NW 44 67 24 36 - - 0.2
15/07:30am 12.0 2.6 5.6 65 3.0 WNW 44 69 24 37 - - 0.2
15/07:00am 12.4 1.2 5.8 64 3.1 WNW 54 83 29 45 - - 0.2
15/06:30am 12.5 2.1 6.1 65 3.0 NW 50 80 27 43 - - 0.2
15/06:00am 12.4 2.8 6.2 66 2.9 NW 46 74 25 40 - - 0.2
15/05:30am 11.1 4.0 6.5 73 2.2 WNW 33 57 18 31 - - 0.2
15/05:20am 10.4 3.5 6.4 76 1.9 WNW 32 50 17 27 - - 0.2
15/05:09am 10.7 1.6 6.1 73 2.2 NW 43 61 23 33 - - 0.0
15/05:00am 11.1 1.2 5.0 66 2.8 NW 46 63 25 34 - - 0.0
15/04:30am 13.2 2.5 2.4 48 4.8 NW 48 74 26 40 - - 0.0
15/04:00am 13.7 2.9 2.0 45 5.1 NNW 48 70 26 38 - - 0.0
15/03:30am 14.1 2.2 2.0 44 5.3 NW 54 80 29 43 - - 0.0
15/03:00am 14.2 1.9 1.8 43 5.4 NNW 56 85 30 46 - - 0.0
15/02:30am 14.5 2.9 1.4 41 5.7 NNW 52 78 28 42 - - 0.0
15/02:00am 14.2 4.1 1.8 43 5.4 NNW 44 72 24 39 - - 0.0
15/01:30am 13.5 3.7 2.1 46 5.0 NNW 43 65 23 35 - - 0.0
15/01:00am 13.3 3.5 2.5 48 4.8 NNW 43 69 23 37 - - 0.0
15/12:30am 13.5 3.5 2.4 47 4.9 NNW 44 80 24 43 - - 0.0
15/12:00am 13.3 2.6 2.5 48 4.8 NNW 48 69 26 37 - - 0.0
 
Date/Time
EST
Temp
°C
App
Temp
°C
Dew
Point
°C
Rel
Hum
%
Delta-T
°C
Wind Press
QNH
hPa
Press
MSL
hPa
Rain since
9am
mm
Dir  Spd
km/h
Gust
km/h
Spd
kts
Gust
kts
14/11:32pm 12.9 3.6 2.7 50 4.5 NNW 41 59 22 32 - - 0.0
14/11:30pm 13.0 3.3 2.8 50 4.5 NNW 43 59 23 32 - - 0.0
14/11:00pm 13.2 3.5 3.0 50 4.5 NNW 43 67 23 36 - - 0.0
14/10:30pm 13.3 3.7 3.4 51 4.5 NNW 43 65 23 35 - - 0.0
14/10:00pm 13.4 3.9 4.0 53 4.3 NNW 43 69 23 37 - - 0.0
14/09:30pm 13.5 3.9 4.4 54 4.2 NNW 44 70 24 38 - - 0.0
14/09:00pm 13.6 4.2 4.7 55 4.1 NNW 43 69 23 37 - - 0.0
14/08:30pm 13.6 4.3 5.0 56 4.0 NNW 43 61 23 33 - - 0.0
14/08:00pm 13.6 4.4 5.3 57 3.9 NNW 43 61 23 33 - - 0.0
14/07:30pm 13.3 5.3 5.5 59 3.7 NNW 37 57 20 31 - - 0.0
14/07:00pm 13.9 4.7 5.5 57 4.0 NNW 43 63 23 34 - - 0.0
14/06:30pm 14.3 4.9 5.4 55 4.2 NNW 44 74 24 40 - - 0.0
14/06:00pm 14.7 5.4 5.2 53 4.5 NNW 43 70 23 38 - - 0.0

Other Formats:

Comma delimited format used in spreadsheet applications
http://www.bom.gov.au/fwo/IDV60801/IDV60801.94846.axf

JavaScript Object Notation format (JSON) in row-major order
http://www.bom.gov.au/fwo/IDV60801/IDV60801.94846.json